Terminal Aerodrome Forecast
Issued by NWS

Home | Current Version | Previous Version | Text Only | Print | Product List | Glossary On
Versions: 1 2 3 4 5 6 7 8 9 10 11 12 13 14 15 16 17 18 19 20 21 22 23 24 25 26 27 28 29 30
000
FTUS45 KGJT 061939 AAA
TAFEGE
TAF AMD
KEGE 061939Z 0620/0718 34012G16KT P6SM +TSRA OVC050CB
     FM062100 00000KT P6SM VCTS FEW070CB BKN090
      TEMPO 0622/0702 30015G30KT P6SM -TSRA BKN060CB
     FM070400 VRB03KT P6SM SCT100 BKN200=

USA.gov is the U.S. government's official web portal to all federal, state and local government web resources and services.